createdAt,value
2018-09-13T00:01:41.126Z,15.20
2018-09-13T00:04:09.465Z,15.10
2018-09-13T00:06:38.663Z,15.10
2018-09-13T00:09:07.800Z,15.10
2018-09-13T00:11:36.194Z,15.10
2018-09-13T00:14:04.620Z,15.10
2018-09-13T00:16:33.977Z,15.10
2018-09-13T00:19:02.367Z,15.10
2018-09-13T00:21:30.726Z,15.10
2018-09-13T00:23:59.125Z,15.10
2018-09-13T00:26:27.461Z,15.10
2018-09-13T00:28:55.803Z,15.10
2018-09-13T00:31:24.319Z,15.10
2018-09-13T00:33:53.470Z,15.00
2018-09-13T00:36:21.862Z,15.00
2018-09-13T00:38:50.170Z,15.00
2018-09-13T00:41:18.509Z,15.00
2018-09-13T00:43:46.867Z,15.00
2018-09-13T00:46:15.249Z,15.00
2018-09-13T00:48:43.588Z,14.90
2018-09-13T00:51:11.951Z,14.90
2018-09-13T00:53:41.064Z,14.90
2018-09-13T00:56:09.427Z,14.90
2018-09-13T00:58:38.640Z,14.80
2018-09-13T01:01:06.907Z,14.80
2018-09-13T01:03:35.279Z,14.80
2018-09-13T01:06:04.377Z,14.90
2018-09-13T01:08:34.415Z,14.80
2018-09-13T01:11:02.753Z,14.80
2018-09-13T01:13:31.227Z,14.80
2018-09-13T01:15:59.685Z,14.80
2018-09-13T01:18:28.062Z,14.80
2018-09-13T01:20:56.404Z,14.80
2018-09-13T01:23:25.485Z,14.80
2018-09-13T01:25:54.709Z,14.80
2018-09-13T01:28:23.091Z,14.70
2018-09-13T01:30:51.473Z,14.70
2018-09-13T01:33:19.808Z,14.70
2018-09-13T01:35:48.146Z,14.70
2018-09-13T01:38:16.651Z,14.60
2018-09-13T01:40:45.008Z,14.60
2018-09-13T01:43:13.388Z,14.60
2018-09-13T01:45:41.734Z,14.50
2018-09-13T01:48:10.839Z,14.50
2018-09-13T01:50:39.174Z,14.50
2018-09-13T01:53:07.546Z,14.40
2018-09-13T01:55:35.945Z,14.40
2018-09-13T01:58:04.884Z,14.40
2018-09-13T02:00:33.234Z,14.40
2018-09-13T02:03:02.320Z,14.40
2018-09-13T02:05:31.522Z,14.40
2018-09-13T02:08:00.616Z,14.40
2018-09-13T02:10:29.760Z,14.40
2018-09-13T02:12:58.114Z,14.40
2018-09-13T02:15:26.489Z,14.40
2018-09-13T02:17:54.872Z,14.40
2018-09-13T02:20:23.266Z,14.40
2018-09-13T02:22:51.608Z,14.40
2018-09-13T02:25:20.774Z,14.40
2018-09-13T02:27:49.112Z,14.40
2018-09-13T02:30:17.450Z,14.40
2018-09-13T02:32:45.815Z,14.40
2018-09-13T02:35:14.206Z,14.40
2018-09-13T02:37:42.592Z,14.40
2018-09-13T02:40:11.732Z,14.30
2018-09-13T02:42:40.064Z,14.30
2018-09-13T02:45:08.444Z,14.30
2018-09-13T02:47:36.826Z,14.20
2018-09-13T02:50:06.005Z,14.20
2018-09-13T02:52:34.440Z,14.20
2018-09-13T02:55:02.821Z,14.30
2018-09-13T02:57:31.181Z,14.30
2018-09-13T02:59:59.805Z,14.20
2018-09-13T03:02:28.226Z,14.30
2018-09-13T03:04:56.541Z,14.20
2018-09-13T03:07:24.877Z,14.20
2018-09-13T03:09:53.249Z,14.20
2018-09-13T03:12:21.596Z,14.20
2018-09-13T03:14:50.021Z,14.10
2018-09-13T03:17:18.391Z,14.10
2018-09-13T03:19:46.725Z,14.10
2018-09-13T03:22:15.136Z,14.10
2018-09-13T03:24:43.545Z,14.10
2018-09-13T03:27:11.978Z,14.10
2018-09-13T03:29:40.463Z,14.10
2018-09-13T03:32:08.840Z,14.10
2018-09-13T03:34:37.180Z,14.10
2018-09-13T03:37:05.513Z,14.10
2018-09-13T03:39:33.833Z,14.10
2018-09-13T03:42:02.248Z,14.10
2018-09-13T03:44:30.734Z,14.10
2018-09-13T03:46:59.069Z,14.00
2018-09-13T03:49:27.422Z,14.00
2018-09-13T03:51:55.810Z,14.00
2018-09-13T03:54:24.179Z,14.00
2018-09-13T03:56:52.583Z,14.00
2018-09-13T03:59:20.946Z,14.00
2018-09-13T04:01:49.361Z,14.00
2018-09-13T04:04:17.885Z,14.00
2018-09-13T04:06:46.218Z,13.90
2018-09-13T04:09:14.641Z,13.90
2018-09-13T04:11:42.977Z,13.90
2018-09-13T04:14:11.980Z,13.90
2018-09-13T04:16:40.312Z,13.90
2018-09-13T04:19:08.826Z,13.90
2018-09-13T04:21:37.964Z,13.90
2018-09-13T04:24:06.432Z,13.90
2018-09-13T04:26:34.987Z,13.90
2018-09-13T04:29:03.269Z,13.90
2018-09-13T04:31:31.600Z,13.80
2018-09-13T04:33:59.954Z,13.80
2018-09-13T04:36:28.292Z,13.80
2018-09-13T04:38:57.524Z,13.80
2018-09-13T04:41:25.919Z,13.80
2018-09-13T04:43:54.267Z,13.80
2018-09-13T04:46:22.622Z,13.80
2018-09-13T04:48:51.190Z,13.80
2018-09-13T04:51:19.608Z,13.80
2018-09-13T04:53:48.011Z,13.80
2018-09-13T04:56:16.452Z,13.70
2018-09-13T04:58:44.796Z,13.70
2018-09-13T05:01:13.165Z,13.80
2018-09-13T05:03:41.708Z,13.80
2018-09-13T05:06:10.844Z,13.80
2018-09-13T05:08:40.138Z,13.80
2018-09-13T05:11:08.648Z,13.80
2018-09-13T05:13:37.128Z,13.80
2018-09-13T05:16:07.296Z,13.80
2018-09-13T05:18:35.862Z,13.90
2018-09-13T05:21:04.996Z,14.00
2018-09-13T05:23:33.439Z,14.00
2018-09-13T05:26:01.800Z,14.00
2018-09-13T05:28:30.188Z,14.00
2018-09-13T05:30:58.606Z,14.00
2018-09-13T05:33:27.000Z,14.00
2018-09-13T05:35:55.374Z,14.00
2018-09-13T05:38:23.726Z,14.00
2018-09-13T05:40:52.886Z,14.00
2018-09-13T05:43:21.224Z,14.00
2018-09-13T05:45:49.599Z,14.00
2018-09-13T05:48:17.938Z,14.00
2018-09-13T05:50:46.394Z,13.90
2018-09-13T05:53:14.794Z,14.00
2018-09-13T05:55:43.164Z,14.00
2018-09-13T05:58:11.581Z,14.00
2018-09-13T06:00:40.751Z,14.00
2018-09-13T06:03:09.140Z,14.00
2018-09-13T06:05:37.624Z,14.00
2018-09-13T06:08:06.809Z,14.00
2018-09-13T06:10:35.253Z,14.00
2018-09-13T06:13:03.582Z,14.00
2018-09-13T06:15:32.749Z,14.00
2018-09-13T06:18:01.090Z,14.00
2018-09-13T06:20:29.472Z,14.00
2018-09-13T06:22:57.870Z,14.00
2018-09-13T06:25:26.212Z,14.00
2018-09-13T06:27:55.348Z,14.10
2018-09-13T06:30:23.687Z,14.10
2018-09-13T06:32:52.869Z,14.20
2018-09-13T06:35:21.251Z,14.20
2018-09-13T06:37:49.607Z,14.30
2018-09-13T06:40:17.954Z,14.40
2018-09-13T06:42:46.456Z,14.50
2018-09-13T06:45:14.784Z,14.50
2018-09-13T06:47:43.942Z,14.70
2018-09-13T06:50:12.358Z,14.60
2018-09-13T06:52:41.475Z,14.80
2018-09-13T06:55:09.877Z,14.80
2018-09-13T06:57:38.234Z,14.80
2018-09-13T07:00:06.621Z,14.80
2018-09-13T07:02:35.991Z,14.80
2018-09-13T07:05:04.320Z,14.80
2018-09-13T07:07:32.664Z,14.80
2018-09-13T07:10:01.042Z,14.80
2018-09-13T07:12:29.393Z,14.80
2018-09-13T07:14:57.800Z,15.00
2018-09-13T07:17:26.986Z,15.10
2018-09-13T07:19:56.116Z,15.30
2018-09-13T07:22:24.442Z,15.30
2018-09-13T07:24:52.767Z,15.30
2018-09-13T07:27:21.138Z,15.30
2018-09-13T07:29:49.506Z,15.30
2018-09-13T07:32:17.896Z,15.30
2018-09-13T07:34:46.283Z,15.20
2018-09-13T07:37:14.668Z,15.10
2018-09-13T07:39:43.003Z,15.00
2018-09-13T07:42:11.546Z,15.00
2018-09-13T07:44:39.935Z,15.00
2018-09-13T07:47:08.286Z,15.00
2018-09-13T07:49:36.768Z,15.00
2018-09-13T07:52:05.033Z,15.00
2018-09-13T07:54:33.442Z,15.20
2018-09-13T07:57:01.813Z,15.20
2018-09-13T07:59:30.170Z,15.30
2018-09-13T08:01:59.409Z,15.30
2018-09-13T08:04:29.262Z,15.40
2018-09-13T08:06:58.382Z,15.50
2018-09-13T08:09:26.795Z,15.50
2018-09-13T08:11:55.223Z,15.50
2018-09-13T08:14:23.511Z,15.60
2018-09-13T08:16:52.434Z,15.60
2018-09-13T08:19:20.786Z,15.60
2018-09-13T08:21:49.378Z,15.60
2018-09-13T08:24:17.678Z,15.60
2018-09-13T08:26:46.035Z,15.60
2018-09-13T08:29:14.402Z,15.50
2018-09-13T08:31:42.717Z,15.50
2018-09-13T08:34:11.096Z,15.50
2018-09-13T08:36:39.438Z,15.50
2018-09-13T08:39:07.916Z,15.50
2018-09-13T08:41:37.020Z,15.40
2018-09-13T08:44:05.398Z,15.50
2018-09-13T08:46:33.715Z,15.50
2018-09-13T08:49:02.082Z,15.40
2018-09-13T08:51:30.546Z,15.50
2018-09-13T08:53:58.849Z,15.50
2018-09-13T08:56:27.213Z,15.50
2018-09-13T08:58:55.536Z,15.50
2018-09-13T09:01:23.952Z,15.50
2018-09-13T09:03:52.356Z,15.50
2018-09-13T09:06:20.903Z,15.50
2018-09-13T09:08:49.214Z,15.50
2018-09-13T09:11:17.564Z,15.60
2018-09-13T09:13:45.907Z,15.70
2018-09-13T09:16:14.269Z,15.90
2018-09-13T09:18:42.627Z,16.00
2018-09-13T09:21:10.977Z,16.10
2018-09-13T09:23:40.074Z,16.20
2018-09-13T09:26:08.463Z,16.10
2018-09-13T09:28:36.808Z,16.10
2018-09-13T09:31:05.258Z,16.00
2018-09-13T09:33:33.668Z,16.00
2018-09-13T09:36:02.018Z,16.10
2018-09-13T09:38:30.358Z,16.20
2018-09-13T09:40:58.731Z,16.30
2018-09-13T09:43:27.856Z,16.30
2018-09-13T09:45:56.214Z,16.30
2018-09-13T09:48:24.580Z,16.30
2018-09-13T09:50:53.678Z,16.30
2018-09-13T09:53:22.796Z,16.30
2018-09-13T09:55:51.134Z,16.30
2018-09-13T09:58:19.562Z,16.30
2018-09-13T10:00:47.937Z,16.20
2018-09-13T10:03:16.282Z,16.10
2018-09-13T10:05:45.511Z,16.10
2018-09-13T10:08:13.966Z,16.10
2018-09-13T10:10:42.498Z,16.10
2018-09-13T10:13:10.868Z,16.10
2018-09-13T10:15:39.334Z,16.10
2018-09-13T10:27:08.281Z,16.40
2018-09-13T10:47:17.451Z,17.50
2018-09-13T10:49:45.787Z,17.40
2018-09-13T10:52:14.328Z,17.40
2018-09-13T10:54:42.622Z,17.50
2018-09-13T10:57:10.958Z,17.50
2018-09-13T10:59:39.352Z,17.50
2018-09-13T11:02:07.715Z,17.40
2018-09-13T11:04:36.115Z,17.40
2018-09-13T11:07:05.203Z,17.30
2018-09-13T11:09:33.696Z,17.30
2018-09-13T11:12:02.224Z,17.40
2018-09-13T11:14:30.588Z,17.50
2018-09-13T11:16:59.118Z,17.70
2018-09-13T11:19:27.562Z,17.90
2018-09-13T11:21:56.073Z,18.00
2018-09-13T11:24:24.546Z,18.00
2018-09-13T11:26:52.892Z,18.00
2018-09-13T11:29:21.355Z,17.90
2018-09-13T11:31:49.704Z,17.90
2018-09-13T11:34:18.250Z,17.80
2018-09-13T11:36:46.560Z,17.70
2018-09-13T11:39:14.947Z,17.60
2018-09-13T11:41:43.306Z,17.50
2018-09-13T11:44:17.501Z,17.50
2018-09-13T11:46:46.610Z,17.40
2018-09-13T11:49:15.844Z,17.60
2018-09-13T11:51:44.312Z,17.60
2018-09-13T11:54:12.634Z,17.90
2018-09-13T11:56:41.039Z,18.20
2018-09-13T11:59:10.159Z,18.30
2018-09-13T12:01:38.527Z,18.30
2018-09-13T12:04:07.649Z,18.10
2018-09-13T12:06:36.204Z,18.10
2018-09-13T12:09:04.576Z,18.00
2018-09-13T12:11:32.994Z,17.80
2018-09-13T12:14:01.348Z,17.60
2018-09-13T12:16:30.605Z,17.10
2018-09-13T12:18:58.948Z,17.10
2018-09-13T12:21:27.268Z,17.00
2018-09-13T12:23:55.662Z,16.90
2018-09-13T12:26:24.062Z,16.70
2018-09-13T12:28:53.218Z,16.60
2018-09-13T12:31:22.027Z,16.50
2018-09-13T12:33:50.490Z,16.50
2018-09-13T12:36:18.823Z,16.50
2018-09-13T12:38:47.217Z,16.50
2018-09-13T12:41:15.573Z,16.60
2018-09-13T12:43:44.706Z,16.70
2018-09-13T12:46:13.064Z,16.70
2018-09-13T12:48:41.444Z,16.80
2018-09-13T12:51:09.780Z,16.90
2018-09-13T12:53:38.122Z,17.00
2018-09-13T12:56:06.583Z,17.20
2018-09-13T12:58:35.729Z,17.40
2018-09-13T13:01:04.154Z,17.40
2018-09-13T13:03:32.778Z,17.60
2018-09-13T13:06:01.135Z,17.70
2018-09-13T13:08:29.510Z,17.90
2018-09-13T13:10:57.952Z,18.00
2018-09-13T13:13:26.393Z,18.10
2018-09-13T13:15:54.852Z,18.20
2018-09-13T13:18:23.889Z,18.10
2018-09-13T13:20:52.293Z,17.90
2018-09-13T13:23:20.705Z,17.70
2018-09-13T13:25:49.063Z,17.60
2018-09-13T13:28:18.795Z,17.40
2018-09-13T13:30:47.118Z,17.40
2018-09-13T13:33:15.522Z,17.30
2018-09-13T13:35:44.650Z,17.20
2018-09-13T13:38:13.025Z,17.20
2018-09-13T13:40:41.659Z,17.20
2018-09-13T13:43:10.028Z,17.20
2018-09-13T13:45:38.436Z,17.20
2018-09-13T13:48:06.808Z,17.00
2018-09-13T13:50:35.382Z,17.00
2018-09-13T13:53:03.799Z,17.00
2018-09-13T13:55:32.885Z,17.00
2018-09-13T13:58:02.164Z,16.90
2018-09-13T14:00:30.490Z,16.90
2018-09-13T14:02:58.841Z,16.90
2018-09-13T14:05:28.059Z,17.00
2018-09-13T14:07:57.195Z,17.10
2018-09-13T14:10:25.573Z,17.00
2018-09-13T14:12:54.005Z,17.10
2018-09-13T14:15:23.099Z,17.20
2018-09-13T14:17:52.244Z,17.20
2018-09-13T14:20:20.753Z,17.20
2018-09-13T14:22:49.071Z,17.20
2018-09-13T14:25:18.235Z,17.00
2018-09-13T14:27:47.338Z,17.00
2018-09-13T14:30:15.714Z,17.00
2018-09-13T14:32:44.080Z,16.80
2018-09-13T14:35:12.569Z,16.80
2018-09-13T14:37:41.017Z,16.70
2018-09-13T14:40:10.861Z,16.60
2018-09-13T14:42:39.951Z,16.50
2018-09-13T14:45:08.397Z,16.50
2018-09-13T14:47:36.861Z,16.50
2018-09-13T14:50:06.968Z,16.40
2018-09-13T14:52:36.143Z,16.50
2018-09-13T14:55:04.486Z,16.50
2018-09-13T14:57:32.809Z,16.60
2018-09-13T15:00:01.204Z,16.60
2018-09-13T15:02:30.339Z,16.80
2018-09-13T15:04:58.756Z,16.80
2018-09-13T15:07:27.181Z,16.90
2018-09-13T15:09:55.620Z,17.10
2018-09-13T15:12:24.886Z,17.20
2018-09-13T15:14:53.271Z,17.30
2018-09-13T15:17:21.861Z,17.40
2018-09-13T15:19:50.647Z,17.40
2018-09-13T15:22:19.003Z,17.50
2018-09-13T15:24:47.349Z,17.60
2018-09-13T15:27:15.683Z,17.60
2018-09-13T15:29:44.026Z,17.50
2018-09-13T15:32:13.248Z,17.40
2018-09-13T15:34:41.673Z,17.40
2018-09-13T15:37:10.117Z,17.20
2018-09-13T15:39:38.451Z,17.10
2018-09-13T15:42:08.329Z,16.90
2018-09-13T15:44:36.739Z,16.90
2018-09-13T15:47:06.237Z,16.70
2018-09-13T15:49:34.563Z,16.70
2018-09-13T15:52:02.908Z,16.60
2018-09-13T15:54:32.986Z,16.40
2018-09-13T15:57:01.295Z,16.40
2018-09-13T15:59:30.469Z,16.30
2018-09-13T16:01:58.823Z,16.30
2018-09-13T16:04:27.175Z,16.20
2018-09-13T16:06:55.537Z,16.20
2018-09-13T16:09:24.638Z,16.10
2018-09-13T16:11:53.011Z,16.00
2018-09-13T16:14:21.395Z,16.00
2018-09-13T16:16:50.544Z,16.00
2018-09-13T16:19:18.914Z,16.00
2018-09-13T16:21:47.247Z,16.00
2018-09-13T16:24:16.398Z,16.00
2018-09-13T16:26:44.730Z,16.00
2018-09-13T16:29:13.229Z,16.00
2018-09-13T16:31:41.559Z,15.90
2018-09-13T16:34:10.043Z,15.90
2018-09-13T16:36:38.455Z,15.90
2018-09-13T16:45:02.467Z,15.90
2018-09-13T16:50:22.699Z,15.90
2018-09-13T16:52:51.051Z,16.00
2018-09-13T16:55:20.269Z,15.90
2018-09-13T16:57:48.606Z,15.90
2018-09-13T17:00:16.986Z,15.90
2018-09-13T17:02:45.398Z,15.90
2018-09-13T17:05:13.749Z,15.90
2018-09-13T17:07:42.143Z,15.80
2018-09-13T17:10:11.158Z,15.80
2018-09-13T17:12:39.525Z,15.80
2018-09-13T17:15:08.628Z,15.70
2018-09-13T17:17:36.973Z,15.70
2018-09-13T17:20:05.411Z,15.60
2018-09-13T17:22:33.838Z,15.60
2018-09-13T17:25:02.205Z,15.60
2018-09-13T17:27:30.732Z,15.50
2018-09-13T17:30:00.200Z,15.40
2018-09-13T17:32:28.507Z,15.40
2018-09-13T17:34:56.877Z,15.40
2018-09-13T17:37:25.974Z,15.30
2018-09-13T17:39:54.368Z,15.30
2018-09-13T17:42:22.684Z,15.20
2018-09-13T17:44:51.045Z,15.20
2018-09-13T17:47:19.414Z,15.20
2018-09-13T17:49:47.865Z,15.10
2018-09-13T17:52:16.288Z,15.10
2018-09-13T17:54:44.662Z,15.10
2018-09-13T17:57:13.014Z,15.00
2018-09-13T17:59:42.110Z,14.90
2018-09-13T18:02:11.348Z,14.90
2018-09-13T18:04:39.692Z,14.90
2018-09-13T18:07:08.214Z,14.80
2018-09-13T18:09:36.733Z,14.80
2018-09-13T18:12:05.193Z,14.80
2018-09-13T18:14:33.614Z,14.80
2018-09-13T18:17:02.015Z,14.80
2018-09-13T18:19:30.389Z,14.80
2018-09-13T18:21:58.787Z,14.80
2018-09-13T18:24:27.342Z,14.80
2018-09-13T18:26:56.454Z,14.70
2018-09-13T18:29:24.903Z,14.70
2018-09-13T18:31:54.002Z,14.60
2018-09-13T18:34:23.277Z,14.60
2018-09-13T18:36:51.603Z,14.60
2018-09-13T18:39:19.961Z,14.60
2018-09-13T18:41:49.065Z,14.50
2018-09-13T18:44:18.195Z,14.50
2018-09-13T18:46:46.523Z,14.50
2018-09-13T18:49:14.876Z,14.50
2018-09-13T18:51:43.453Z,14.40
2018-09-13T18:54:12.011Z,14.40
2018-09-13T18:56:40.314Z,14.40
2018-09-13T18:59:08.756Z,14.40
2018-09-13T19:01:37.851Z,14.40
2018-09-13T19:04:07.258Z,14.30
2018-09-13T19:06:36.378Z,14.30
2018-09-13T19:09:05.629Z,14.30
2018-09-13T19:11:34.760Z,14.30
2018-09-13T19:14:03.149Z,14.20
2018-09-13T19:16:31.528Z,14.20
2018-09-13T19:18:59.879Z,14.20
2018-09-13T19:21:28.415Z,14.10
2018-09-13T19:23:56.790Z,14.10
2018-09-13T19:26:25.137Z,14.10
2018-09-13T19:28:53.482Z,14.10
2018-09-13T19:31:22.046Z,14.00
2018-09-13T19:33:50.380Z,14.00
2018-09-13T19:36:18.709Z,14.00
2018-09-13T19:38:47.176Z,13.90
2018-09-13T19:41:15.464Z,13.90
2018-09-13T19:43:43.816Z,13.90
2018-09-13T19:46:12.206Z,13.80
2018-09-13T19:48:41.279Z,13.80
2018-09-13T19:51:09.666Z,13.80
2018-09-13T19:53:38.029Z,13.70
2018-09-13T19:56:06.490Z,13.70
2018-09-13T19:58:35.584Z,13.60
2018-09-13T20:01:04.706Z,13.60
2018-09-13T20:03:33.057Z,13.60
2018-09-13T20:06:02.312Z,13.50
2018-09-13T20:08:30.742Z,13.50
2018-09-13T20:11:00.760Z,13.40
2018-09-13T20:13:29.878Z,13.40
2018-09-13T20:15:58.675Z,13.40
2018-09-13T20:18:27.091Z,13.40
2018-09-13T20:20:55.418Z,13.30
2018-09-13T20:23:23.776Z,13.30
2018-09-13T20:25:52.891Z,13.30
2018-09-13T20:28:21.306Z,13.20
2018-09-13T20:30:49.616Z,13.20
2018-09-13T20:33:17.989Z,13.20
2018-09-13T20:35:46.335Z,13.20
2018-09-13T20:38:14.809Z,13.20
2018-09-13T20:40:43.253Z,13.20
2018-09-13T20:43:12.387Z,13.10
2018-09-13T20:45:40.807Z,13.10
2018-09-13T20:48:10.679Z,13.10
2018-09-13T20:50:39.101Z,13.00
2018-09-13T20:53:07.449Z,13.00
2018-09-13T20:55:35.792Z,13.00
2018-09-13T20:58:04.870Z,13.00
2018-09-13T21:00:34.113Z,13.00
2018-09-13T21:03:02.387Z,12.90
2018-09-13T21:05:30.901Z,12.90
2018-09-13T21:07:59.305Z,12.90
2018-09-13T21:10:27.752Z,12.80
2018-09-13T21:12:56.097Z,12.80
2018-09-13T21:15:24.505Z,12.80
2018-09-13T21:17:52.822Z,12.80
2018-09-13T21:20:21.247Z,12.70
2018-09-13T21:22:49.631Z,12.70
2018-09-13T21:25:17.951Z,12.70
2018-09-13T21:27:46.306Z,12.70
2018-09-13T21:30:14.633Z,12.70
2018-09-13T21:32:43.802Z,12.70
2018-09-13T21:35:12.091Z,12.60
2018-09-13T21:37:41.476Z,12.60
2018-09-13T21:40:09.939Z,12.60
2018-09-13T21:42:38.351Z,12.60
2018-09-13T21:45:06.691Z,12.50
2018-09-13T21:47:35.031Z,12.50
2018-09-13T21:50:04.172Z,12.40
2018-09-13T21:52:32.525Z,12.40
2018-09-13T21:55:00.896Z,12.40
2018-09-13T21:57:29.300Z,12.40
2018-09-13T21:59:57.775Z,12.30
2018-09-13T22:02:26.143Z,12.30
2018-09-13T22:04:54.505Z,12.30
2018-09-13T22:07:22.863Z,12.30
2018-09-13T22:09:51.218Z,12.30
2018-09-13T22:12:19.569Z,12.30
2018-09-13T22:14:47.943Z,12.30
2018-09-13T22:17:16.379Z,12.30
2018-09-13T22:19:45.129Z,12.20
2018-09-13T22:22:13.465Z,12.20
2018-09-13T22:24:41.881Z,12.20
2018-09-13T22:27:10.234Z,12.20
2018-09-13T22:29:38.575Z,12.20
2018-09-13T22:32:06.971Z,12.20
2018-09-13T22:34:36.085Z,12.10
2018-09-13T22:37:05.423Z,12.10
2018-09-13T22:39:33.745Z,12.00
2018-09-13T22:42:02.203Z,12.00
2018-09-13T22:44:30.539Z,12.00
2018-09-13T22:46:58.915Z,12.00
2018-09-13T22:49:27.390Z,12.00
2018-09-13T22:51:56.478Z,12.00
2018-09-13T22:54:25.703Z,12.00
2018-09-13T22:56:54.034Z,12.00
2018-09-13T22:59:22.375Z,11.90
2018-09-13T23:01:50.831Z,11.90
2018-09-13T23:04:19.278Z,11.90
2018-09-13T23:06:47.604Z,11.80
2018-09-13T23:09:16.067Z,11.70
2018-09-13T23:11:44.429Z,11.70
2018-09-13T23:14:13.542Z,11.60
2018-09-13T23:16:49.574Z,11.60
2018-09-13T23:19:10.420Z,11.60
2018-09-13T23:21:38.770Z,11.60
2018-09-13T23:24:07.890Z,11.60
2018-09-13T23:26:36.222Z,11.60
2018-09-13T23:29:04.689Z,11.60
2018-09-13T23:31:33.135Z,11.50
2018-09-13T23:34:01.463Z,11.50
2018-09-13T23:36:29.821Z,11.50
2018-09-13T23:38:58.464Z,11.40
2018-09-13T23:41:26.716Z,11.40
2018-09-13T23:43:55.812Z,11.30
2018-09-13T23:46:24.930Z,11.30
2018-09-13T23:48:54.010Z,11.30
2018-09-13T23:51:23.244Z,11.30
2018-09-13T23:53:51.631Z,11.30
2018-09-13T23:56:19.982Z,11.30
2018-09-13T23:58:48.319Z,11.20
